createdAt,value
2018-08-19T00:00:02.391Z,22.82
2018-08-19T00:01:02.084Z,22.75
2018-08-19T00:02:02.379Z,22.77
2018-08-19T00:03:02.391Z,22.78
2018-08-19T00:04:02.368Z,22.78
2018-08-19T00:05:02.362Z,22.77
2018-08-19T00:06:02.021Z,22.90
2018-08-19T00:07:02.362Z,22.86
2018-08-19T00:08:02.340Z,22.90
2018-08-19T00:09:02.334Z,22.90
2018-08-19T00:10:02.344Z,22.83
2018-08-19T00:11:02.340Z,22.94
2018-08-19T00:12:02.332Z,22.93
2018-08-19T00:13:02.321Z,22.97
2018-08-19T00:14:01.989Z,22.99
2018-08-19T00:15:02.296Z,22.94
2018-08-19T00:16:01.957Z,22.89
2018-08-19T00:17:02.304Z,23.01
2018-08-19T00:18:02.296Z,22.96
2018-08-19T00:19:01.944Z,22.96
2018-08-19T00:20:02.278Z,22.94
2018-08-19T00:21:02.255Z,22.92
2018-08-19T00:22:01.916Z,22.96
2018-08-19T00:23:01.911Z,22.94
2018-08-19T00:24:02.233Z,22.92
2018-08-19T00:25:01.920Z,22.97
2018-08-19T00:26:01.893Z,22.87
2018-08-19T00:27:02.232Z,22.87
2018-08-19T00:28:02.206Z,22.94
2018-08-19T00:29:02.192Z,22.89
2018-08-19T00:30:02.215Z,22.83
2018-08-19T00:31:01.855Z,22.90
2018-08-19T00:32:01.851Z,22.78
2018-08-19T00:33:02.173Z,22.86
2018-08-19T00:34:02.161Z,22.80
2018-08-19T00:35:02.181Z,22.83
2018-08-19T00:36:02.152Z,22.80
2018-08-19T00:37:02.140Z,22.83
2018-08-19T00:38:01.838Z,22.83
2018-08-19T00:39:02.136Z,22.78
2018-08-19T00:40:02.173Z,22.78
2018-08-19T00:41:01.791Z,22.77
2018-08-19T00:42:01.787Z,22.84
2018-08-19T00:43:01.783Z,22.83
2018-08-19T00:44:01.788Z,22.80
2018-08-19T00:45:01.777Z,22.74
2018-08-19T00:46:02.105Z,22.75
2018-08-19T00:47:01.756Z,22.74
2018-08-19T00:48:01.754Z,22.78
2018-08-19T00:49:01.753Z,22.82
2018-08-19T00:50:01.732Z,22.80
2018-08-19T00:51:02.053Z,22.77
2018-08-19T00:52:01.708Z,22.77
2018-08-19T00:53:02.061Z,22.74
2018-08-19T00:54:02.036Z,22.72
2018-08-19T00:55:02.025Z,22.74
2018-08-19T00:56:01.684Z,22.62
2018-08-19T00:57:02.033Z,22.68
2018-08-19T00:58:01.693Z,22.77
2018-08-19T00:59:02.002Z,22.59
2018-08-19T01:00:01.678Z,22.65
2018-08-19T01:01:01.651Z,22.64
2018-08-19T01:02:01.644Z,22.68
2018-08-19T01:03:01.982Z,22.68
2018-08-19T01:04:01.987Z,22.67
2018-08-19T01:05:01.627Z,22.71
2018-08-19T01:06:01.628Z,22.62
2018-08-19T01:07:01.949Z,22.67
2018-08-19T01:08:01.966Z,22.68
2018-08-19T01:09:01.956Z,22.65
2018-08-19T01:10:01.606Z,22.65
2018-08-19T01:11:01.940Z,22.64
2018-08-19T01:12:01.916Z,22.67
2018-08-19T01:13:01.579Z,22.60
2018-08-19T01:14:01.566Z,22.68
2018-08-19T01:15:01.581Z,22.68
2018-08-19T01:16:01.575Z,22.74
2018-08-19T01:17:01.565Z,22.77
2018-08-19T01:18:01.892Z,22.77
2018-08-19T01:19:01.870Z,22.75
2018-08-19T01:20:01.536Z,22.74
2018-08-19T01:21:01.856Z,22.74
2018-08-19T01:22:01.529Z,22.78
2018-08-19T01:23:01.845Z,22.71
2018-08-19T01:24:01.532Z,22.71
2018-08-19T01:25:01.504Z,22.74
2018-08-19T01:26:01.843Z,22.74
2018-08-19T01:27:01.493Z,22.72
2018-08-19T01:28:01.811Z,22.75
2018-08-19T01:29:01.472Z,22.74
2018-08-19T01:30:01.478Z,22.80
2018-08-19T01:31:01.472Z,22.78
2018-08-19T01:32:01.456Z,22.80
2018-08-19T01:33:01.455Z,22.80
2018-08-19T01:34:01.777Z,22.75
2018-08-19T01:35:01.766Z,22.69
2018-08-19T01:36:01.759Z,22.82
2018-08-19T01:37:01.753Z,22.74
2018-08-19T01:38:01.769Z,22.67
2018-08-19T01:39:01.415Z,22.75
2018-08-19T01:40:01.395Z,22.68
2018-08-19T01:41:01.392Z,22.72
2018-08-19T01:42:01.740Z,22.86
2018-08-19T01:43:01.390Z,22.74
2018-08-19T01:44:01.706Z,22.72
2018-08-19T01:45:01.700Z,22.78
2018-08-19T01:46:01.350Z,22.80
2018-08-19T01:47:01.355Z,22.75
2018-08-19T01:48:01.680Z,22.74
2018-08-19T01:49:01.674Z,22.71
2018-08-19T01:50:01.667Z,22.75
2018-08-19T01:51:01.677Z,22.82
2018-08-19T01:52:01.336Z,22.72
2018-08-19T01:53:01.318Z,22.72
2018-08-19T01:54:01.659Z,22.78
2018-08-19T01:55:01.635Z,22.68
2018-08-19T01:56:01.646Z,22.60
2018-08-19T01:57:01.624Z,22.71
2018-08-19T01:58:01.615Z,22.69
2018-08-19T01:59:01.279Z,22.72
2018-08-19T02:00:01.278Z,22.69
2018-08-19T02:01:01.614Z,22.72
2018-08-19T02:02:01.259Z,22.65
2018-08-19T02:03:01.260Z,22.69
2018-08-19T02:04:01.574Z,22.72
2018-08-19T02:05:01.589Z,22.71
2018-08-19T02:06:01.569Z,22.65
2018-08-19T02:07:01.558Z,22.64
2018-08-19T02:08:01.568Z,22.68
2018-08-19T02:09:01.569Z,22.67
2018-08-19T02:10:01.202Z,22.68
2018-08-19T02:11:01.182Z,22.68
2018-08-19T02:12:01.513Z,22.68
2018-08-19T02:13:01.507Z,22.69
2018-08-19T02:14:01.512Z,22.64
2018-08-19T02:15:01.186Z,22.74
2018-08-19T02:16:01.178Z,22.71
2018-08-19T02:17:01.180Z,22.62
2018-08-19T02:18:01.168Z,22.67
2018-08-19T02:19:01.476Z,22.65
2018-08-19T02:20:01.475Z,22.68
2018-08-19T02:21:01.468Z,22.77
2018-08-19T02:22:01.468Z,22.67
2018-08-19T02:23:01.117Z,22.67
2018-08-19T02:24:01.437Z,22.71
2018-08-19T02:25:01.436Z,22.59
2018-08-19T02:26:01.107Z,22.68
2018-08-19T02:27:01.087Z,22.72
2018-08-19T02:28:01.093Z,22.69
2018-08-19T02:29:01.412Z,22.67
2018-08-19T02:30:01.413Z,22.68
2018-08-19T02:31:01.402Z,22.64
2018-08-19T02:32:01.091Z,22.60
2018-08-19T02:33:01.064Z,22.65
2018-08-19T02:34:01.393Z,22.74
2018-08-19T02:35:01.044Z,22.72
2018-08-19T02:36:01.041Z,22.72
2018-08-19T02:37:01.359Z,22.74
2018-08-19T02:38:01.006Z,22.78
2018-08-19T02:39:01.341Z,22.75
2018-08-19T02:40:01.339Z,22.83
2018-08-19T02:41:01.016Z,22.84
2018-08-19T02:42:00.989Z,22.82
2018-08-19T02:43:00.975Z,22.82
2018-08-19T02:44:01.314Z,22.80
2018-08-19T02:45:00.989Z,22.78
2018-08-19T02:46:01.301Z,22.80
2018-08-19T02:47:00.957Z,22.80
2018-08-19T02:48:01.286Z,22.78
2018-08-19T02:49:00.958Z,22.77
2018-08-19T02:50:00.937Z,22.78
2018-08-19T02:51:01.264Z,22.86
2018-08-19T02:52:01.263Z,22.84
2018-08-19T02:53:01.256Z,22.78
2018-08-19T02:54:01.245Z,22.77
2018-08-19T02:55:00.920Z,22.86
2018-08-19T02:56:00.915Z,22.82
2018-08-19T02:57:00.901Z,22.77
2018-08-19T02:58:00.907Z,22.84
2018-08-19T02:59:01.212Z,22.80
2018-08-19T03:00:00.877Z,22.75
2018-08-19T03:01:01.200Z,22.78
2018-08-19T03:02:01.192Z,22.78
2018-08-19T03:03:01.184Z,22.92
2018-08-19T03:04:01.180Z,22.87
2018-08-19T03:05:00.863Z,22.89
2018-08-19T03:06:01.167Z,22.90
2018-08-19T03:07:00.830Z,22.96
2018-08-19T03:08:01.155Z,22.97
2018-08-19T03:09:00.833Z,22.93
2018-08-19T03:10:01.140Z,22.96
2018-08-19T03:11:00.802Z,22.97
2018-08-19T03:12:00.806Z,22.94
2018-08-19T03:13:01.119Z,22.90
2018-08-19T03:14:01.128Z,22.93
2018-08-19T03:15:00.816Z,22.90
2018-08-19T03:16:00.781Z,22.89
2018-08-19T03:17:00.764Z,22.78
2018-08-19T03:18:01.089Z,22.83
2018-08-19T03:19:00.733Z,22.92
2018-08-19T03:20:00.744Z,22.83
2018-08-19T03:21:00.771Z,22.83
2018-08-19T03:22:00.769Z,22.80
2018-08-19T03:23:01.057Z,22.89
2018-08-19T03:24:01.049Z,22.82
2018-08-19T03:25:01.042Z,22.89
2018-08-19T03:26:00.709Z,22.87
2018-08-19T03:27:00.692Z,22.87
2018-08-19T03:28:01.026Z,22.92
2018-08-19T03:29:01.016Z,22.94
2018-08-19T03:30:00.673Z,22.80
2018-08-19T03:31:01.004Z,22.78
2018-08-19T03:32:00.707Z,22.80
2018-08-19T03:33:00.693Z,22.77
2018-08-19T03:34:00.675Z,22.83
2018-08-19T03:35:00.977Z,22.77
2018-08-19T03:36:00.644Z,22.78
2018-08-19T03:37:00.971Z,22.80
2018-08-19T03:38:00.976Z,22.93
2018-08-19T03:39:00.949Z,22.80
2018-08-19T03:40:00.650Z,22.86
2018-08-19T03:41:00.943Z,22.94
2018-08-19T03:42:00.608Z,22.87
2018-08-19T03:43:00.601Z,22.90
2018-08-19T03:44:00.605Z,22.89
2018-08-19T03:45:00.586Z,22.82
2018-08-19T03:46:00.594Z,22.80
2018-08-19T03:47:00.909Z,22.80
2018-08-19T03:48:00.570Z,22.80
2018-08-19T03:49:00.891Z,22.83
2018-08-19T03:50:00.884Z,22.90
2018-08-19T03:51:00.566Z,22.78
2018-08-19T03:52:00.542Z,22.83
2018-08-19T03:53:00.540Z,22.83
2018-08-19T03:54:00.859Z,22.80
2018-08-19T03:55:00.530Z,22.87
2018-08-19T03:56:00.850Z,22.90
2018-08-19T03:57:00.842Z,22.83
2018-08-19T03:58:00.501Z,22.83
2018-08-19T03:59:00.504Z,22.87
2018-08-19T04:00:00.505Z,22.77
2018-08-19T04:01:00.472Z,22.78
2018-08-19T04:02:00.464Z,22.77
2018-08-19T04:03:00.806Z,22.80
2018-08-19T04:04:00.476Z,22.82
2018-08-19T04:05:00.444Z,22.78
2018-08-19T04:06:00.482Z,22.80
2018-08-19T04:07:00.445Z,22.69
2018-08-19T04:08:00.447Z,22.72
2018-08-19T04:09:00.758Z,22.78
2018-08-19T04:10:00.416Z,22.82
2018-08-19T04:11:00.748Z,22.74
2018-08-19T04:12:00.741Z,22.75
2018-08-19T04:13:00.423Z,22.78
2018-08-19T04:14:00.734Z,22.75
2018-08-19T04:15:00.403Z,22.80
2018-08-19T04:16:00.722Z,22.75
2018-08-19T04:17:00.368Z,22.77
2018-08-19T04:18:00.362Z,22.75
2018-08-19T04:19:00.354Z,22.77
2018-08-19T04:20:00.362Z,22.74
2018-08-19T04:21:00.679Z,22.74
2018-08-19T04:22:00.684Z,22.78
2018-08-19T04:23:00.337Z,22.72
2018-08-19T04:24:00.661Z,22.82
2018-08-19T04:25:00.651Z,22.74
2018-08-19T04:26:00.649Z,22.72
2018-08-19T04:27:00.302Z,22.74
2018-08-19T04:28:00.296Z,22.74
2018-08-19T04:29:00.313Z,22.75
2018-08-19T04:30:00.282Z,22.71
2018-08-19T04:31:00.294Z,22.78
2018-08-19T04:32:00.613Z,22.75
2018-08-19T04:33:00.594Z,22.74
2018-08-19T04:34:00.599Z,22.72
2018-08-19T04:35:00.591Z,22.75
2018-08-19T04:36:00.583Z,22.71
2018-08-19T04:37:00.583Z,22.62
2018-08-19T04:38:00.569Z,22.72
2018-08-19T04:39:00.232Z,22.65
2018-08-19T04:40:00.563Z,22.71
2018-08-19T04:41:00.549Z,22.62
2018-08-19T04:42:00.224Z,22.69
2018-08-19T04:43:00.199Z,22.64
2018-08-19T04:44:00.529Z,22.64
2018-08-19T04:45:00.212Z,22.68
2018-08-19T04:46:00.516Z,22.64
2018-08-19T04:47:00.180Z,22.64
2018-08-19T04:48:00.500Z,22.57
2018-08-19T04:49:00.500Z,22.56
2018-08-19T04:50:00.496Z,22.65
2018-08-19T04:51:00.153Z,22.56
2018-08-19T04:52:00.179Z,22.59
2018-08-19T04:53:00.472Z,22.67
2018-08-19T04:54:00.474Z,22.53
2018-08-19T04:55:00.457Z,22.57
2018-08-19T04:56:00.452Z,22.56
2018-08-19T04:57:00.442Z,22.56
2018-08-19T04:58:00.103Z,22.54
2018-08-19T04:59:00.434Z,22.60
2018-08-19T05:00:00.427Z,22.56
2018-08-19T05:01:00.413Z,22.67
2018-08-19T05:02:00.434Z,22.60
2018-08-19T05:03:00.407Z,22.60
2018-08-19T05:04:00.395Z,22.53
2018-08-19T05:05:00.059Z,22.53
2018-08-19T05:06:00.071Z,22.49
2018-08-19T05:07:00.062Z,22.59
2018-08-19T05:08:00.072Z,22.56
2018-08-19T05:09:00.367Z,22.59
2018-08-19T05:10:00.061Z,22.57
2018-08-19T05:11:00.013Z,22.65
2018-08-19T05:12:00.348Z,22.54
2018-08-19T05:13:00.014Z,22.52
2018-08-19T05:14:00.331Z,22.57
2018-08-19T05:15:00.324Z,22.60
2018-08-19T05:16:00.316Z,22.46
2018-08-19T05:16:59.982Z,22.53
2018-08-19T05:18:00.310Z,22.52
2018-08-19T05:18:59.970Z,22.53
2018-08-19T05:19:59.959Z,22.52
2018-08-19T05:21:00.287Z,22.50
2018-08-19T05:21:59.935Z,22.50
2018-08-19T05:22:59.948Z,22.50
2018-08-19T05:24:00.273Z,22.52
2018-08-19T05:25:00.262Z,22.50
2018-08-19T05:25:59.935Z,22.54
2018-08-19T05:27:00.241Z,22.50
2018-08-19T05:27:59.916Z,22.50
2018-08-19T05:29:00.233Z,22.47
2018-08-19T05:29:59.911Z,22.46
2018-08-19T05:30:59.881Z,22.52
2018-08-19T05:32:00.214Z,22.50
2018-08-19T05:32:59.872Z,22.49
2018-08-19T05:34:00.203Z,22.41
2018-08-19T05:34:59.880Z,22.50
2018-08-19T05:40:05.263Z,22.44
2018-08-19T05:41:03.951Z,22.49
2018-08-19T05:42:57.634Z,22.47
2018-08-19T05:43:57.295Z,22.46
2018-08-19T05:45:50.899Z,22.46
2018-08-19T05:46:50.638Z,22.49
2018-08-19T05:48:43.839Z,22.46
2018-08-19T05:49:43.834Z,22.52
2018-08-19T05:51:37.080Z,22.46
2018-08-19T05:52:36.839Z,22.50
2018-08-19T05:54:30.526Z,22.49
2018-08-19T05:55:30.522Z,22.49
2018-08-19T05:57:24.089Z,22.50
2018-08-19T05:58:23.532Z,22.50
2018-08-19T06:00:16.881Z,22.53
2018-08-19T06:01:17.221Z,22.53
2018-08-19T06:03:10.666Z,22.46
2018-08-19T06:04:10.546Z,22.50
2018-08-19T06:06:03.569Z,22.52
2018-08-19T06:07:03.551Z,22.52
2018-08-19T06:08:57.492Z,22.44
2018-08-19T06:09:57.235Z,22.46
2018-08-19T06:11:50.823Z,22.44
2018-08-19T06:12:50.227Z,22.52
2018-08-19T06:14:44.132Z,22.47
2018-08-19T06:15:43.588Z,22.46
2018-08-19T06:17:37.501Z,22.54
2018-08-19T06:18:37.242Z,22.53
2018-08-19T06:20:30.834Z,22.39
2018-08-19T06:21:30.587Z,22.50
2018-08-19T06:23:23.941Z,22.49
2018-08-19T06:24:23.927Z,22.49
2018-08-19T06:26:17.473Z,22.37
2018-08-19T06:27:17.265Z,22.47
2018-08-19T06:29:10.628Z,22.52
2018-08-19T06:30:10.606Z,22.34
2018-08-19T06:32:04.214Z,22.41
2018-08-19T06:33:03.948Z,22.43
2018-08-19T06:34:57.390Z,22.41
2018-08-19T06:35:57.292Z,22.41
2018-08-19T06:37:50.835Z,22.37
2018-08-19T06:38:50.633Z,22.39
2018-08-19T06:40:43.982Z,22.39
2018-08-19T06:41:43.652Z,22.38
2018-08-19T06:43:37.234Z,22.37
2018-08-19T06:44:36.990Z,22.46
2018-08-19T06:46:30.684Z,22.43
2018-08-19T06:47:30.337Z,22.43
2018-08-19T06:49:24.040Z,22.35
2018-08-19T06:50:23.997Z,22.43
2018-08-19T06:52:16.928Z,22.37
2018-08-19T06:53:16.545Z,22.38
2018-08-19T06:55:10.464Z,22.47
2018-08-19T06:56:09.902Z,22.39
2018-08-19T06:58:03.214Z,22.35
2018-08-19T06:59:03.546Z,22.37
2018-08-19T07:00:56.786Z,22.37
2018-08-19T07:01:56.564Z,22.44
2018-08-19T07:03:50.006Z,22.44
2018-08-19T07:04:50.244Z,22.38
2018-08-19T07:06:43.482Z,22.39
2018-08-19T07:07:43.252Z,22.39
2018-08-19T07:09:36.921Z,22.29
2018-08-19T07:10:36.923Z,22.41
2018-08-19T07:12:30.486Z,22.35
2018-08-19T07:13:29.919Z,22.37
2018-08-19T07:15:23.296Z,22.39
2018-08-19T07:16:23.259Z,22.41
2018-08-19T07:18:16.824Z,22.37
2018-08-19T07:19:16.932Z,22.32
2018-08-19T07:21:10.284Z,22.37
2018-08-19T07:22:10.292Z,22.39
2018-08-19T07:24:03.832Z,22.28
2018-08-19T07:25:03.640Z,22.41
2018-08-19T07:26:56.984Z,22.39
2018-08-19T07:27:56.976Z,22.39
2018-08-19T07:29:50.240Z,22.43
2018-08-19T07:30:49.977Z,22.35
2018-08-19T07:32:43.301Z,22.41
2018-08-19T07:33:43.307Z,22.35
2018-08-19T07:35:37.229Z,22.41
2018-08-19T07:36:36.664Z,22.38
2018-08-19T07:38:30.004Z,22.31
2018-08-19T07:39:29.988Z,22.27
2018-08-19T07:41:24.150Z,22.41
2018-08-19T07:42:23.324Z,22.37
2018-08-19T07:44:16.678Z,22.41
2018-08-19T07:45:16.660Z,22.28
2018-08-19T07:47:10.579Z,22.43
2018-08-19T07:48:10.359Z,22.28
2018-08-19T07:50:03.708Z,22.34
2018-08-19T07:51:03.365Z,22.34
2018-08-19T07:52:56.909Z,22.34
2018-08-19T07:53:57.040Z,22.35
2018-08-19T07:55:50.059Z,22.23
2018-08-19T07:56:50.058Z,22.38
2018-08-19T07:58:44.175Z,22.35
2018-08-19T07:59:43.728Z,22.37
2018-08-19T08:01:36.716Z,22.39
2018-08-19T08:02:37.045Z,22.37
2018-08-19T08:04:30.643Z,22.38
2018-08-19T08:05:30.377Z,22.29
2018-08-19T08:07:23.398Z,22.35
2018-08-19T08:08:23.743Z,22.37
2018-08-19T08:10:16.968Z,22.37
2018-08-19T08:11:17.060Z,22.32
2018-08-19T08:13:11.012Z,22.34
2018-08-19T08:14:10.093Z,22.38
2018-08-19T08:16:03.672Z,22.39
2018-08-19T08:17:03.415Z,22.37
2018-08-19T08:18:57.098Z,22.32
2018-08-19T08:19:57.089Z,22.37
2018-08-19T08:21:50.349Z,22.43
2018-08-19T08:22:50.447Z,22.41
2018-08-19T08:24:43.796Z,22.34
2018-08-19T08:25:43.778Z,22.41
2018-08-19T08:27:37.390Z,22.44
2018-08-19T08:28:37.112Z,22.44
2018-08-19T08:30:30.118Z,22.38
2018-08-19T08:31:30.149Z,22.35
2018-08-19T08:33:23.813Z,22.44
2018-08-19T08:34:23.500Z,22.38
2018-08-19T08:36:17.158Z,22.41
2018-08-19T08:37:16.797Z,22.39
2018-08-19T08:39:10.668Z,22.38
2018-08-19T08:40:10.486Z,22.41
2018-08-19T08:42:03.498Z,22.43
2018-08-19T08:43:03.821Z,22.43
2018-08-19T08:44:57.389Z,22.41
2018-08-19T08:45:56.843Z,22.47
2018-08-19T08:47:50.534Z,22.43
2018-08-19T08:48:50.168Z,22.41
2018-08-19T08:50:43.721Z,22.50
2018-08-19T08:51:43.507Z,22.39
2018-08-19T08:53:36.857Z,22.46
2018-08-19T08:54:37.178Z,22.46
2018-08-19T08:56:30.808Z,22.43
2018-08-19T08:57:30.190Z,22.39
2018-08-19T08:59:23.525Z,22.39
2018-08-19T09:00:23.878Z,22.46
2018-08-19T09:02:17.433Z,22.41
2018-08-19T09:03:16.970Z,22.43
2018-08-19T09:05:10.569Z,22.39
2018-08-19T09:06:10.559Z,22.39
2018-08-19T09:08:04.700Z,22.39
2018-08-19T09:09:03.882Z,22.39
2018-08-19T09:10:57.235Z,22.35
2018-08-19T09:11:56.915Z,22.46
2018-08-19T09:13:50.478Z,22.43
2018-08-19T09:14:50.216Z,22.44
2018-08-19T09:16:43.582Z,22.39
2018-08-19T09:17:43.573Z,22.41
2018-08-19T09:19:37.480Z,22.39
2018-08-19T09:20:36.903Z,22.38
2018-08-19T09:22:30.601Z,22.41
2018-08-19T09:23:30.618Z,22.39
2018-08-19T09:25:23.946Z,22.39
2018-08-19T09:26:23.607Z,22.41
2018-08-19T09:28:16.959Z,22.38
2018-08-19T09:29:16.938Z,22.39
2018-08-19T09:31:10.852Z,22.47
2018-08-19T09:32:10.606Z,22.39
2018-08-19T09:34:03.971Z,22.38
2018-08-19T09:35:03.636Z,22.35
2018-08-19T09:36:57.487Z,22.43
2018-08-19T09:37:57.294Z,22.43
2018-08-19T09:39:51.259Z,22.39
2018-08-19T09:40:50.362Z,22.43
2018-08-19T09:42:43.872Z,22.41
2018-08-19T09:43:43.647Z,22.44
2018-08-19T09:45:37.316Z,22.38
2018-08-19T09:46:36.995Z,22.39
2018-08-19T09:48:30.529Z,22.43
2018-08-19T09:49:30.319Z,22.44
2018-08-19T09:51:24.015Z,22.39
2018-08-19T09:52:23.655Z,22.37
2018-08-19T09:54:17.601Z,22.39
2018-08-19T09:55:17.339Z,22.39
2018-08-19T09:57:10.702Z,22.47
2018-08-19T09:58:10.668Z,22.41
2018-08-19T10:00:04.289Z,22.35
2018-08-19T10:01:03.673Z,22.50
2018-08-19T10:02:57.379Z,22.41
2018-08-19T10:03:57.372Z,22.43
2018-08-19T10:05:50.949Z,22.44
2018-08-19T10:06:50.710Z,22.39
2018-08-19T10:08:44.305Z,22.37
2018-08-19T10:09:43.707Z,22.39
2018-08-19T10:11:37.577Z,22.38
2018-08-19T10:12:37.039Z,22.39
2018-08-19T10:14:30.740Z,22.41
2018-08-19T10:15:30.377Z,22.34
2018-08-19T10:17:23.928Z,22.49
2018-08-19T10:18:23.754Z,22.39
2018-08-19T10:20:17.997Z,22.43
2018-08-19T10:21:17.055Z,22.41
2018-08-19T10:23:10.936Z,22.39
2018-08-19T10:24:10.404Z,22.50
2018-08-19T10:26:03.769Z,22.46
2018-08-19T10:27:03.755Z,22.47
2018-08-19T10:28:57.682Z,22.39
2018-08-19T10:29:57.434Z,22.39
2018-08-19T10:31:50.465Z,22.52
2018-08-19T10:32:50.777Z,22.39
2018-08-19T10:34:44.353Z,22.39
2018-08-19T10:35:44.139Z,22.39
2018-08-19T10:37:37.468Z,22.39
2018-08-19T10:38:37.475Z,22.44
2018-08-19T10:40:31.023Z,22.43
2018-08-19T10:41:30.470Z,22.39
2018-08-19T10:43:24.145Z,22.44
2018-08-19T10:44:23.825Z,22.37
2018-08-19T10:46:17.733Z,22.44
2018-08-19T10:47:17.141Z,22.37
2018-08-19T10:49:10.505Z,22.29
2018-08-19T10:50:10.501Z,22.32
2018-08-19T10:52:04.062Z,22.25
2018-08-19T10:53:04.184Z,22.31
2018-08-19T10:54:57.527Z,22.35
2018-08-19T10:55:57.184Z,22.38
2018-08-19T10:57:50.715Z,22.28
2018-08-19T10:58:50.837Z,22.35
2018-08-19T11:00:43.864Z,22.34
2018-08-19T11:01:43.870Z,22.35
2018-08-19T11:03:37.768Z,22.38
2018-08-19T11:04:37.215Z,22.34
2018-08-19T11:06:31.000Z,22.32
2018-08-19T11:07:30.865Z,22.29
2018-08-19T11:09:24.101Z,22.27
2018-08-19T11:10:23.867Z,22.29
2018-08-19T11:12:17.256Z,22.28
2018-08-19T11:13:17.263Z,22.25
2018-08-19T11:15:10.774Z,22.28
2018-08-19T11:16:10.577Z,22.31
2018-08-19T11:18:04.502Z,22.28
2018-08-19T11:19:04.226Z,22.35
2018-08-19T11:20:57.477Z,22.31
2018-08-19T11:21:57.590Z,22.32
2018-08-19T11:23:51.195Z,22.29
2018-08-19T11:24:50.932Z,22.23
2018-08-19T11:26:44.458Z,22.14
2018-08-19T11:27:44.266Z,22.28
2018-08-19T11:29:37.621Z,22.28
2018-08-19T11:30:37.604Z,22.22
2018-08-19T11:32:31.160Z,22.23
2018-08-19T11:33:30.931Z,22.14
2018-08-19T11:35:23.951Z,22.19
2018-08-19T11:36:23.957Z,22.17
2018-08-19T11:38:17.493Z,22.28
2018-08-19T11:39:17.627Z,22.27
2018-08-19T11:41:10.974Z,22.20
2018-08-19T11:42:10.614Z,22.20
2018-08-19T11:44:04.522Z,22.23
2018-08-19T11:45:03.965Z,22.17
2018-08-19T11:46:57.657Z,22.14
2018-08-19T11:47:57.345Z,22.22
2018-08-19T11:49:51.416Z,22.19
2018-08-19T11:50:50.646Z,22.25
2018-08-19T11:52:44.330Z,22.13
2018-08-19T11:53:44.321Z,22.22
2018-08-19T11:55:37.526Z,22.13
2018-08-19T11:56:37.329Z,22.10
2018-08-19T11:58:31.005Z,22.07
2018-08-19T11:59:31.014Z,22.16
2018-08-19T12:01:24.250Z,22.12
2018-08-19T12:02:24.010Z,22.04
2018-08-19T12:04:17.706Z,22.16
2018-08-19T12:05:17.335Z,22.09
2018-08-19T12:07:11.813Z,22.06
2018-08-19T12:08:11.034Z,22.09
2018-08-19T12:10:04.025Z,22.10
2018-08-19T12:11:04.361Z,22.09
2018-08-19T12:12:57.569Z,22.10
2018-08-19T12:13:57.379Z,22.09
2018-08-19T12:15:51.044Z,22.07
2018-08-19T12:16:51.060Z,22.10
2018-08-19T12:18:44.253Z,22.02
2018-08-19T12:19:44.397Z,22.07
2018-08-19T12:21:37.742Z,22.09
2018-08-19T12:22:37.386Z,22.06
2018-08-19T12:24:31.277Z,22.12
2018-08-19T12:25:30.725Z,22.09
2018-08-19T12:27:24.457Z,22.12
2018-08-19T12:28:24.066Z,22.07
2018-08-19T12:30:18.230Z,22.13
2018-08-19T12:31:17.406Z,22.07
2018-08-19T12:33:10.748Z,22.02
2018-08-19T12:34:11.094Z,22.01
2018-08-19T12:36:04.313Z,22.09
2018-08-19T12:37:04.132Z,22.06
2018-08-19T12:38:57.786Z,22.02
2018-08-19T12:39:57.774Z,22.02
2018-08-19T12:41:51.326Z,22.04
2018-08-19T12:42:51.101Z,22.04
2018-08-19T12:44:44.488Z,22.09
2018-08-19T12:45:44.105Z,21.99
2018-08-19T12:47:37.681Z,22.09
2018-08-19T12:48:37.771Z,21.98
2018-08-19T12:50:30.797Z,22.04
2018-08-19T12:51:31.134Z,22.01
2018-08-19T12:53:24.743Z,22.04
2018-08-19T12:54:24.458Z,22.04
2018-08-19T12:56:17.474Z,21.99
2018-08-19T12:57:17.798Z,21.98
2018-08-19T12:59:11.044Z,22.01
2018-08-19T13:00:10.804Z,21.99
2018-08-19T13:02:04.490Z,22.02
2018-08-19T13:03:04.496Z,21.98
2018-08-19T13:04:58.047Z,22.09
2018-08-19T13:05:57.493Z,22.01
2018-08-19T13:07:51.212Z,21.99
2018-08-19T13:08:51.180Z,22.09
2018-08-19T13:10:44.409Z,21.99
2018-08-19T13:11:44.522Z,21.95
2018-08-19T13:13:37.525Z,21.99
2018-08-19T13:14:37.519Z,21.98
2018-08-19T13:16:31.410Z,21.95
2018-08-19T13:17:30.860Z,21.94
2018-08-19T13:19:24.552Z,22.01
2018-08-19T13:20:24.525Z,21.99
2018-08-19T13:22:17.764Z,21.97
2018-08-19T13:23:17.563Z,21.97
2018-08-19T13:25:10.899Z,21.95
2018-08-19T13:26:10.891Z,22.04
2018-08-19T13:28:04.413Z,21.97
2018-08-19T13:29:04.218Z,21.98
2018-08-19T13:30:58.164Z,21.98
2018-08-19T13:31:57.556Z,21.94
2018-08-19T13:33:51.724Z,22.02
2018-08-19T13:34:51.244Z,22.01
2018-08-19T13:36:44.279Z,21.91
2018-08-19T13:37:44.270Z,21.97
2018-08-19T13:39:37.802Z,21.94
2018-08-19T13:40:37.568Z,21.98
2018-08-19T13:42:30.923Z,22.02
2018-08-19T13:43:31.249Z,22.01
2018-08-19T13:45:24.620Z,21.92
2018-08-19T13:46:24.262Z,21.97
2018-08-19T13:48:17.612Z,21.99
2018-08-19T13:49:17.922Z,21.99
2018-08-19T13:51:11.520Z,22.01
2018-08-19T13:52:11.287Z,21.92
2018-08-19T13:54:04.296Z,21.95
2018-08-19T13:55:04.281Z,21.95
2018-08-19T13:56:57.837Z,22.01
2018-08-19T13:57:57.968Z,22.02
2018-08-19T13:59:51.317Z,21.95
2018-08-19T14:00:50.992Z,22.02
2018-08-19T14:02:44.524Z,21.98
2018-08-19T14:03:44.317Z,22.02
2018-08-19T14:05:37.760Z,21.95
2018-08-19T14:06:37.647Z,21.94
2018-08-19T14:08:31.339Z,22.02
2018-08-19T14:09:30.972Z,22.01
2018-08-19T14:11:24.692Z,22.02
2018-08-19T14:12:24.417Z,21.98
2018-08-19T14:14:18.222Z,22.01
2018-08-19T14:15:17.671Z,21.98
2018-08-19T14:17:11.368Z,22.01
2018-08-19T14:18:10.999Z,21.95
2018-08-19T14:20:05.166Z,21.97
2018-08-19T14:21:04.346Z,21.99
2018-08-19T14:22:58.023Z,22.01
2018-08-19T14:23:57.688Z,22.02
2018-08-19T14:25:51.280Z,21.97
2018-08-19T14:26:51.023Z,21.98
2018-08-19T14:28:44.971Z,21.99
2018-08-19T14:29:44.713Z,21.92
2018-08-19T14:31:38.873Z,21.94
2018-08-19T14:32:37.708Z,21.99
2018-08-19T14:34:31.059Z,21.94
2018-08-19T14:35:31.393Z,21.92
2018-08-19T14:37:25.534Z,21.97
2018-08-19T14:38:24.377Z,21.92
2018-08-19T14:40:17.776Z,21.92
2018-08-19T14:41:17.735Z,21.88
2018-08-19T14:43:11.617Z,21.91
2018-08-19T14:44:11.418Z,21.97
2018-08-19T14:46:04.759Z,21.90
2018-08-19T14:47:04.755Z,21.98
2018-08-19T14:48:58.326Z,21.94
2018-08-19T14:49:57.753Z,21.97
2018-08-19T14:51:51.456Z,21.99
2018-08-19T14:52:51.101Z,21.95
2018-08-19T14:54:44.629Z,21.91
2018-08-19T14:55:44.435Z,21.95
2018-08-19T14:57:38.120Z,21.94
2018-08-19T14:58:38.107Z,21.88
2018-08-19T15:00:31.334Z,21.88
2018-08-19T15:01:31.466Z,21.92
2018-08-19T15:03:24.793Z,21.94
2018-08-19T15:04:24.806Z,21.92
2018-08-19T15:06:18.022Z,21.99
2018-08-19T15:07:18.128Z,21.97
2018-08-19T15:09:11.142Z,21.94
2018-08-19T15:10:11.507Z,21.92
2018-08-19T15:12:04.715Z,21.92
2018-08-19T15:13:04.808Z,21.92
2018-08-19T15:14:57.840Z,21.90
2018-08-19T15:15:58.163Z,21.81
2018-08-19T15:17:51.381Z,21.92
2018-08-19T15:18:51.505Z,21.91
2018-08-19T15:20:44.847Z,21.91
2018-08-19T15:21:44.511Z,21.85
2018-08-19T15:23:38.061Z,21.85
2018-08-19T15:24:38.191Z,21.85
2018-08-19T15:26:31.206Z,21.85
2018-08-19T15:27:31.205Z,21.85
2018-08-19T15:29:25.083Z,21.85
2018-08-19T15:30:24.878Z,21.85
2018-08-19T15:32:18.302Z,21.78
2018-08-19T15:33:17.963Z,21.95
2018-08-19T15:35:12.374Z,21.85
2018-08-19T15:36:11.528Z,21.88
2018-08-19T15:38:04.554Z,21.85
2018-08-19T15:39:04.875Z,21.85
2018-08-19T15:40:58.190Z,21.90
2018-08-19T15:41:57.886Z,21.88
2018-08-19T15:43:51.238Z,21.88
2018-08-19T15:44:51.217Z,21.81
2018-08-19T15:46:44.813Z,21.85
2018-08-19T15:47:44.581Z,21.83
2018-08-19T15:49:37.917Z,21.81
2018-08-19T15:50:38.249Z,21.85
2018-08-19T15:52:31.808Z,21.85
2018-08-19T15:53:31.590Z,21.88
2018-08-19T15:55:24.936Z,21.83
2018-08-19T15:56:24.586Z,21.88
2018-08-19T15:58:18.141Z,21.85
2018-08-19T15:59:17.933Z,21.88
2018-08-19T16:01:11.288Z,21.82
2018-08-19T16:02:11.257Z,21.92
2018-08-19T16:04:04.802Z,21.85
2018-08-19T16:05:04.612Z,21.90
2018-08-19T16:06:58.303Z,21.90
2018-08-19T16:07:57.931Z,21.91
2018-08-19T16:09:51.528Z,21.82